Time;durP1;ratioP1;P1;durP2;ratioP2;P2;SDS_P1;SDS_P2;PMS_P1;PMS_P2;Temp;Humidity;BMP_temperature;BMP_pressure;BME280_temperature;BME280_humidity;BME280_pressure;Samples;Min_cycle;Max_cycle;Signal;HPM_P1;HPM_P2
2023/06/17 00:00:08;;;;;;;11.75;8.07;;;;;;;20.50;46.32;93314.19;4982158;28;20550;-90
2023/06/17 00:02:34;;;;;;;10.55;7.20;;;;;;;20.51;45.97;93310.91;5018799;28;20060;-90
2023/06/17 00:05:02;;;;;;;11.43;8.00;;;;;;;20.49;46.18;93309.94;5031806;28;20504;-91
2023/06/17 00:07:27;;;;;;;9.75;7.00;;;;;;;20.51;46.14;93304.66;5008348;28;20433;-90
2023/06/17 00:09:54;;;;;;;11.18;7.45;;;;;;;20.49;46.03;93301.72;4983738;28;20042;-92
2023/06/17 00:12:21;;;;;;;10.88;7.38;;;;;;;20.47;45.96;93299.50;5013599;28;20038;-90
2023/06/17 00:14:47;;;;;;;11.32;7.40;;;;;;;20.49;46.23;93299.69;5028383;28;20508;-90
2023/06/17 00:17:14;;;;;;;12.85;6.82;;;;;;;20.48;46.03;93298.22;5016918;28;20045;-90
2023/06/17 00:19:40;;;;;;;11.45;7.30;;;;;;;20.47;46.09;93293.25;5027634;28;20034;-90
2023/06/17 00:22:08;;;;;;;14.93;6.82;;;;;;;20.47;46.10;93291.25;5005926;28;20041;-91
2023/06/17 00:24:36;;;;;;;10.15;7.10;;;;;;;20.48;46.11;93284.50;4999251;28;20045;-91
2023/06/17 00:27:03;;;;;;;9.50;6.82;;;;;;;20.47;46.01;93285.75;5000719;28;20062;-90
2023/06/17 00:29:28;;;;;;;11.63;6.47;;;;;;;20.46;46.19;93289.03;4974359;28;20064;-92
2023/06/17 00:31:54;;;;;;;9.43;7.25;;;;;;;20.46;46.12;93283.53;4981989;28;20541;-91
2023/06/17 00:34:20;;;;;;;14.02;7.20;;;;;;;20.45;46.09;93273.81;4977390;28;20038;-90
2023/06/17 00:36:45;;;;;;;10.40;6.90;;;;;;;20.45;46.09;93274.56;4998410;28;20044;-91
2023/06/17 00:39:13;;;;;;;11.50;7.28;;;;;;;20.46;46.21;93267.06;4986593;28;20034;-92
2023/06/17 00:41:40;;;;;;;12.15;7.90;;;;;;;20.46;46.13;93270.56;5004446;28;20064;-91
2023/06/17 00:44:06;;;;;;;13.13;6.85;;;;;;;20.45;46.28;93279.31;4993898;28;20552;-90
2023/06/17 00:46:35;;;;;;;9.52;7.32;;;;;;;20.46;46.31;93281.53;5013734;28;20042;-92
2023/06/17 00:49:06;;;;;;;9.93;6.70;;;;;;;20.46;46.12;93273.28;5004567;28;20046;-90
2023/06/17 00:51:33;;;;;;;10.52;6.72;;;;;;;20.47;45.92;93269.28;5024746;28;20289;-91
2023/06/17 00:54:00;;;;;;;13.68;7.45;;;;;;;20.43;46.51;93268.84;4998709;28;20057;-91
2023/06/17 00:56:26;;;;;;;9.32;6.70;;;;;;;20.46;46.17;93267.06;4996549;28;20038;-91
2023/06/17 00:58:53;;;;;;;8.95;6.50;;;;;;;20.46;46.25;93267.06;4980872;28;20042;-91
2023/06/17 01:01:20;;;;;;;9.77;6.82;;;;;;;20.45;46.28;93266.31;5011234;28;20096;-91
2023/06/17 01:03:46;;;;;;;8.73;6.80;;;;;;;20.46;46.22;93269.81;5024763;28;20044;-91
2023/06/17 01:06:14;;;;;;;9.00;6.63;;;;;;;20.46;46.22;93259.56;4998741;28;20042;-92
2023/06/17 01:08:41;;;;;;;9.68;7.15;;;;;;;20.46;46.32;93264.31;4996898;28;20053;-90
2023/06/17 01:11:09;;;;;;;9.50;6.93;;;;;;;20.44;46.33;93261.34;5020225;28;20046;-90
2023/06/17 01:13:35;;;;;;;9.63;7.22;;;;;;;20.44;46.41;93253.88;4980729;28;20038;-90
2023/06/17 01:16:01;;;;;;;10.30;6.60;;;;;;;20.45;46.30;93262.84;4962901;28;20039;-91
2023/06/17 01:18:29;;;;;;;9.52;6.35;;;;;;;20.45;46.32;93260.09;4980087;28;20042;-91
2023/06/17 01:20:55;;;;;;;11.18;6.57;;;;;;;20.44;46.46;93258.59;4980651;28;20065;-90
2023/06/17 01:23:21;;;;;;;9.07;6.50;;;;;;;20.44;46.59;93261.34;4983355;28;20045;-92
2023/06/17 01:25:47;;;;;;;7.55;6.05;;;;;;;20.44;46.38;93264.09;4982396;28;20077;-91
2023/06/17 01:28:17;;;;;;;7.97;6.22;;;;;;;20.45;46.37;93260.84;4983121;28;20072;-90
2023/06/17 01:30:44;;;;;;;9.20;5.87;;;;;;;20.43;46.43;93260.63;4986976;28;20041;-90
2023/06/17 01:33:11;;;;;;;9.15;6.50;;;;;;;20.42;46.16;93250.91;5006831;28;20042;-91
2023/06/17 01:35:37;;;;;;;9.40;6.47;;;;;;;20.42;46.50;93253.66;5012650;28;20559;-90
2023/06/17 01:38:12;;;;;;;10.00;6.90;;;;;;;20.42;46.39;93261.16;4979278;28;20394;-90
2023/06/17 01:40:38;;;;;;;9.43;6.13;;;;;;;20.42;46.50;93253.66;5000622;28;20042;-91
2023/06/17 01:43:05;;;;;;;11.55;7.03;;;;;;;20.40;46.47;93261.66;4965360;28;20092;-90
2023/06/17 01:45:31;;;;;;;8.95;5.97;;;;;;;20.40;46.33;93263.69;4984424;28;20038;-91
2023/06/17 01:47:56;;;;;;;10.40;6.35;;;;;;;20.41;46.34;93265.91;4980525;28;20049;-91
2023/06/17 01:50:21;;;;;;;10.55;6.57;;;;;;;20.41;46.33;93259.66;5008609;28;20041;-90
2023/06/17 01:52:47;;;;;;;8.90;5.70;;;;;;;20.41;46.30;93257.66;4996863;28;20034;-91
2023/06/17 01:55:14;;;;;;;8.55;6.03;;;;;;;20.40;46.42;93261.66;4990194;28;20073;-90
2023/06/17 01:57:40;;;;;;;9.07;5.93;;;;;;;20.41;46.44;93252.16;4965435;28;20047;-90
2023/06/17 02:00:06;;;;;;;8.63;6.40;;;;;;;20.39;46.42;93260.19;4996044;28;20048;-90
2023/06/17 02:02:31;;;;;;;9.05;5.93;;;;;;;20.41;46.46;93267.91;4991609;28;20105;-91
2023/06/17 02:04:57;;;;;;;8.27;6.03;;;;;;;20.41;46.39;93267.91;5026295;28;20046;-92
2023/06/17 02:07:24;;;;;;;8.95;6.40;;;;;;;20.42;46.42;93264.63;4991360;28;20056;-91
2023/06/17 02:09:50;;;;;;;10.45;6.40;;;;;;;20.42;46.50;93261.16;4997218;28;20026;-92
2023/06/17 02:12:15;;;;;;;11.00;6.55;;;;;;;20.41;46.41;93270.66;4983900;28;20422;-92
2023/06/17 02:14:40;;;;;;;8.57;5.90;;;;;;;20.42;46.51;93269.38;5025795;28;20041;-91
2023/06/17 02:17:08;;;;;;;8.88;5.53;;;;;;;20.40;46.46;93272.66;4998974;28;20508;-91
2023/06/17 02:19:35;;;;;;;8.82;5.85;;;;;;;20.40;46.48;93280.16;4996617;28;20034;-90
2023/06/17 02:22:00;;;;;;;9.57;6.63;;;;;;;20.40;46.37;93269.91;4981877;28;20034;-91
2023/06/17 02:24:26;;;;;;;8.32;5.88;;;;;;;20.41;46.46;93273.38;4982752;28;20052;-90
2023/06/17 02:26:51;;;;;;;9.82;6.07;;;;;;;20.38;46.38;93272.44;4980669;28;20055;-91
2023/06/17 02:29:17;;;;;;;8.57;6.28;;;;;;;20.38;46.52;93286.16;4978151;28;20452;-90
2023/06/17 02:31:43;;;;;;;8.27;5.72;;;;;;;20.39;46.58;93282.16;5022078;28;20034;-90
2023/06/17 02:34:09;;;;;;;7.63;5.55;;;;;;;20.39;46.47;93270.44;4997243;28;20042;-92
2023/06/17 02:36:37;;;;;;;9.27;6.28;;;;;;;20.39;46.38;93270.44;4995984;28;20038;-92
2023/06/17 02:39:02;;;;;;;12.07;6.00;;;;;;;20.38;46.72;93286.16;5010299;28;20399;-91
2023/06/17 02:41:27;;;;;;;9.13;6.00;;;;;;;20.40;46.50;93283.63;4987011;28;20046;-90
2023/06/17 02:43:53;;;;;;;8.32;6.28;;;;;;;20.40;46.54;93280.88;5011627;28;20049;-92
2023/06/17 02:46:19;;;;;;;8.25;5.00;;;;;;;20.37;46.47;93276.44;4977885;28;20049;-89
2023/06/17 02:48:45;;;;;;;8.75;5.82;;;;;;;20.39;46.51;93268.44;5001307;28;20045;-90
2023/06/17 02:51:10;;;;;;;7.00;5.45;;;;;;;20.40;46.89;93266.41;5004351;28;20029;-91
2023/06/17 02:53:36;;;;;;;9.20;5.57;;;;;;;20.40;46.29;93263.69;4983421;28;20413;-91
2023/06/17 02:56:01;;;;;;;7.75;5.60;;;;;;;20.37;46.24;93256.50;5000293;28;20038;-90
2023/06/17 02:58:26;;;;;;;8.85;6.00;;;;;;;20.37;46.64;93262.72;4998918;28;20099;-91
2023/06/17 03:00:55;;;;;;;7.82;5.72;;;;;;;20.39;46.74;93265.69;4991194;28;20042;-91
2023/06/17 03:03:34;;;;;;;7.25;5.55;;;;;;;20.37;46.67;93276.44;4991863;28;20046;-90
2023/06/17 03:06:03;;;;;;;7.57;5.78;;;;;;;20.38;46.68;93266.19;4994461;28;20330;-90
2023/06/17 03:08:30;;;;;;;7.97;5.95;;;;;;;20.39;46.61;93267.69;5006689;28;20033;-91
2023/06/17 03:10:56;;;;;;;7.95;5.47;;;;;;;20.35;46.76;93256.28;4983638;28;20038;-91
2023/06/17 03:13:21;;;;;;;7.22;5.72;;;;;;;20.37;46.77;93265.47;4994691;28;20112;-91
2023/06/17 03:15:47;;;;;;;7.10;4.95;;;;;;;20.36;46.68;93266.69;4986841;28;20041;-90
2023/06/17 03:18:15;;;;;;;7.60;5.55;;;;;;;20.35;46.69;93262.47;5009812;28;20046;-91
2023/06/17 03:20:40;;;;;;;8.10;5.85;;;;;;;20.36;46.73;93261.22;4991627;28;20056;-91
2023/06/17 03:23:06;;;;;;;6.93;5.55;;;;;;;20.36;46.68;93277.69;4996130;28;20412;-89
2023/06/17 03:25:32;;;;;;;8.48;5.80;;;;;;;20.37;46.50;93267.47;5000256;28;20086;-91
2023/06/17 03:28:00;;;;;;;9.55;5.90;;;;;;;20.37;46.66;93281.19;4982755;28;20038;-90
2023/06/17 03:30:29;;;;;;;7.78;5.60;;;;;;;20.36;46.59;93261.22;4987593;28;20109;-91
2023/06/17 03:32:57;;;;;;;7.03;5.13;;;;;;;20.35;46.64;93267.25;4988102;28;20038;-92
2023/06/17 03:35:23;;;;;;;7.57;5.10;;;;;;;20.34;46.78;93274.75;5002087;28;20105;-91
2023/06/17 03:37:50;;;;;;;7.22;5.43;;;;;;;20.36;46.57;93279.69;5003071;28;20619;-90
2023/06/17 03:40:16;;;;;;;8.10;5.65;;;;;;;20.36;46.57;93268.72;5012432;28;20373;-90
2023/06/17 03:42:42;;;;;;;5.63;4.75;;;;;;;20.35;46.41;93265.22;5018083;28;20057;-90
2023/06/17 03:45:08;;;;;;;8.38;5.43;;;;;;;20.36;46.68;93261.22;5001725;28;20033;-92
2023/06/17 03:47:34;;;;;;;7.30;5.45;;;;;;;20.38;46.46;93271.69;5013117;28;20052;-90
2023/06/17 03:49:59;;;;;;;7.15;5.35;;;;;;;20.37;46.42;93270.97;5017830;28;20064;-90
2023/06/17 03:52:25;;;;;;;9.40;5.53;;;;;;;20.35;46.82;93273.47;5000561;28;20530;-91
2023/06/17 03:54:52;;;;;;;7.55;5.50;;;;;;;20.36;46.38;93279.69;4984966;28;20475;-91
2023/06/17 03:57:18;;;;;;;8.32;5.65;;;;;;;20.35;46.63;93275.50;4994647;28;20045;-90
2023/06/17 03:59:43;;;;;;;8.25;5.25;;;;;;;20.35;46.51;93278.25;4985991;28;20673;-92
2023/06/17 04:02:09;;;;;;;8.25;5.60;;;;;;;20.34;46.87;93280.25;4979856;28;20048;-92
2023/06/17 04:04:34;;;;;;;9.80;5.88;;;;;;;20.35;46.40;93278.25;5008874;28;20033;-91
2023/06/17 04:07:00;;;;;;;9.57;5.30;;;;;;;20.32;46.62;93277.28;4980302;28;20062;-92
2023/06/17 04:09:26;;;;;;;6.65;5.00;;;;;;;20.34;46.42;93283.00;5013848;28;20120;-91
2023/06/17 04:11:51;;;;;;;6.75;4.50;;;;;;;20.36;46.79;93283.16;4981175;28;20481;-91
2023/06/17 04:14:17;;;;;;;7.65;4.95;;;;;;;20.36;46.36;93277.69;4978602;28;20046;-90
2023/06/17 04:16:43;;;;;;;7.05;5.00;;;;;;;20.34;46.68;93285.72;5002071;28;20038;-90
2023/06/17 04:19:09;;;;;;;7.38;4.97;;;;;;;20.33;46.42;93280.75;5009807;28;20046;-91
2023/06/17 04:21:35;;;;;;;6.32;4.72;;;;;;;20.34;46.55;93276.75;5005149;28;20038;-90
2023/06/17 04:24:01;;;;;;;8.40;4.97;;;;;;;20.34;46.46;93285.72;4977831;28;20042;-92
2023/06/17 04:26:28;;;;;;;8.35;5.30;;;;;;;20.35;46.40;93287.19;4993491;28;20077;-90
2023/06/17 04:28:53;;;;;;;6.25;4.90;;;;;;;20.36;46.52;93285.19;5029832;28;20052;-90
2023/06/17 04:31:19;;;;;;;7.60;5.35;;;;;;;20.38;46.42;93293.66;5017026;28;20049;-90
2023/06/17 04:33:44;;;;;;;6.78;4.82;;;;;;;20.36;46.54;93291.41;4984284;28;20427;-92
2023/06/17 04:36:10;;;;;;;7.32;5.18;;;;;;;20.36;46.52;93288.66;4980794;28;20294;-90
2023/06/17 04:38:42;;;;;;;7.32;4.95;;;;;;;20.36;46.53;93287.94;5002491;28;20030;-90
2023/06/17 04:41:08;;;;;;;6.35;5.05;;;;;;;20.35;46.64;93284.44;4992139;28;20042;-91
2023/06/17 04:43:36;;;;;;;7.07;4.70;;;;;;;20.34;46.60;93283.00;5000833;28;20120;-92
2023/06/17 04:46:02;;;;;;;6.80;5.30;;;;;;;20.37;46.49;93283.94;4990180;28;20042;-91
2023/06/17 04:48:31;;;;;;;6.07;4.70;;;;;;;20.35;46.67;93281.69;4980998;28;20458;-90
2023/06/17 04:50:56;;;;;;;8.40;5.50;;;;;;;20.36;46.50;93294.16;4984689;28;20048;-91
2023/06/17 04:53:22;;;;;;;6.93;5.18;;;;;;;20.35;46.42;93286.47;4980441;28;20053;-90
2023/06/17 04:55:48;;;;;;;7.50;5.10;;;;;;;20.36;46.40;93268.72;4980727;28;20481;-90
2023/06/17 04:58:14;;;;;;;6.15;5.07;;;;;;;20.37;46.22;93270.97;4992027;28;20050;-91
2023/06/17 05:00:39;;;;;;;7.03;5.68;;;;;;;20.36;46.41;93282.44;4996134;28;20093;-90
2023/06/17 05:03:04;;;;;;;7.38;5.30;;;;;;;20.38;46.49;93290.91;4987889;28;20447;-91
2023/06/17 05:05:30;;;;;;;6.75;4.63;;;;;;;20.39;46.34;93286.91;5016218;28;20431;-91
2023/06/17 05:07:55;;;;;;;7.15;4.50;;;;;;;20.39;46.41;93293.13;5000765;28;20439;-91
2023/06/17 05:10:21;;;;;;;8.30;5.00;;;;;;;20.42;46.17;93296.84;5015284;28;20421;-91
2023/06/17 05:12:46;;;;;;;8.93;4.78;;;;;;;20.41;46.41;93292.59;5002054;28;20042;-90
2023/06/17 05:15:12;;;;;;;5.75;4.60;;;;;;;20.43;46.06;93292.81;4978952;28;20042;-90
2023/06/17 05:17:37;;;;;;;6.35;4.55;;;;;;;20.41;46.19;93285.13;4995838;28;20053;-90
2023/06/17 05:20:04;;;;;;;7.78;4.65;;;;;;;20.41;46.35;93289.88;4979233;28;20379;-91
2023/06/17 05:22:29;;;;;;;7.55;5.35;;;;;;;20.43;46.16;93293.56;4975586;28;20065;-92
2023/06/17 05:24:55;;;;;;;9.85;5.30;;;;;;;20.45;45.88;93295.78;4979314;28;20125;-91
2023/06/17 05:27:20;;;;;;;6.18;4.55;;;;;;;20.45;46.09;93295.78;4996105;28;20580;-91
2023/06/17 05:29:46;;;;;;;6.35;4.88;;;;;;;20.45;46.06;93295.78;4996175;28;20045;-92
2023/06/17 05:32:11;;;;;;;7.82;4.57;;;;;;;20.47;46.20;93296.00;4995683;28;20046;-91
2023/06/17 05:34:37;;;;;;;6.70;4.90;;;;;;;20.46;46.23;93297.28;5002759;28;20038;-91
2023/06/17 05:37:02;;;;;;;5.15;4.18;;;;;;;20.45;46.21;93296.53;4979955;28;20049;-90
2023/06/17 05:39:29;;;;;;;7.53;4.90;;;;;;;20.48;46.16;93300.22;5004884;28;20037;-91
2023/06/17 05:41:54;;;;;;;6.45;4.78;;;;;;;20.46;46.21;93297.28;5039931;28;20046;-90
2023/06/17 05:44:19;;;;;;;5.82;4.50;;;;;;;20.49;46.07;93307.19;5013492;28;20040;-91
2023/06/17 05:46:45;;;;;;;7.30;4.47;;;;;;;20.52;46.21;93304.16;4984513;28;20038;-91
2023/06/17 05:49:10;;;;;;;7.35;4.78;;;;;;;20.54;46.25;93295.38;4979560;28;20104;-90
2023/06/17 05:51:36;;;;;;;6.70;4.32;;;;;;;20.58;46.10;93306.78;4986804;28;20046;-92
2023/06/17 05:54:03;;;;;;;5.05;4.28;;;;;;;20.57;46.09;93308.03;4994725;28;20068;-91
2023/06/17 05:56:28;;;;;;;6.25;4.22;;;;;;;20.57;46.19;93304.56;4981757;28;20037;-90
2023/06/17 05:58:53;;;;;;;5.50;4.20;;;;;;;20.55;46.10;93294.13;4991579;28;20100;-91
2023/06/17 06:01:19;;;;;;;6.03;4.20;;;;;;;20.55;45.93;93304.38;4991361;28;20046;-92
2023/06/17 06:03:44;;;;;;;5.30;3.88;;;;;;;20.55;46.17;93296.88;4976186;28;20035;-91
2023/06/17 06:06:10;;;;;;;4.88;3.72;;;;;;;20.60;45.79;93301.50;4999963;28;20103;-91
2023/06/17 06:08:35;;;;;;;6.05;3.63;;;;;;;20.56;45.85;93298.34;4985405;28;20049;-90
2023/06/17 06:11:01;;;;;;;6.63;4.63;;;;;;;20.56;45.87;93311.34;5006062;28;20041;-90
2023/06/17 06:13:28;;;;;;;14.50;7.57;;;;;;;20.56;46.10;93311.34;4981274;28;20089;-90
2023/06/17 06:15:54;;;;;;;19.63;10.13;;;;;;;20.56;45.79;93309.34;5004883;28;20127;-91
2023/06/17 06:18:22;;;;;;;12.13;8.02;;;;;;;20.55;45.98;93313.34;4992124;28;20042;-92
2023/06/17 06:20:47;;;;;;;20.50;11.65;;;;;;;20.56;46.06;93309.34;4980105;28;20043;-92
2023/06/17 06:23:15;;;;;;;19.95;7.07;;;;;;;20.61;45.94;93304.97;4995407;28;20092;-91
2023/06/17 06:25:41;;;;;;;10.25;5.65;;;;;;;20.60;45.92;93314.47;4976094;28;20069;-91
2023/06/17 06:28:07;;;;;;;9.20;5.93;;;;;;;20.59;46.10;93300.00;4992669;28;20084;-91
2023/06/17 06:30:33;;;;;;;13.00;6.32;;;;;;;20.59;46.23;93311.00;4984953;28;20082;-91
2023/06/17 06:32:59;;;;;;;10.93;6.15;;;;;;;20.59;45.97;93321.25;4993802;28;20103;-91
2023/06/17 06:35:24;;;;;;;12.43;6.25;;;;;;;20.63;45.95;93324.41;4996067;28;20049;-89
2023/06/17 06:37:52;;;;;;;17.00;7.43;;;;;;;20.65;45.95;93311.63;5001074;28;20058;-91
2023/06/17 06:40:18;;;;;;;24.15;10.15;;;;;;;20.65;46.18;93322.63;4978036;28;20046;-90
2023/06/17 06:42:43;;;;;;;28.17;10.02;;;;;;;20.66;46.07;93320.63;4987978;28;20107;-90
2023/06/17 06:45:09;;;;;;;15.48;8.82;;;;;;;20.62;46.01;93326.44;4985529;28;20042;-90
2023/06/17 06:47:35;;;;;;;17.73;8.73;;;;;;;20.63;46.10;93318.94;4991428;28;20081;-91
2023/06/17 06:50:00;;;;;;;18.10;9.27;;;;;;;20.63;46.20;93322.41;4975145;28;20436;-90
2023/06/17 06:52:25;;;;;;;20.48;10.20;;;;;;;20.64;46.12;93323.16;4984252;28;20042;-90
2023/06/17 06:54:54;;;;;;;21.25;9.88;;;;;;;20.66;45.87;93324.09;5005582;28;20384;-91
2023/06/17 06:57:20;;;;;;;17.13;9.75;;;;;;;20.65;45.95;93325.38;4973204;28;20077;-91
2023/06/17 06:59:46;;;;;;;19.60;10.20;;;;;;;20.66;46.16;93318.63;5008800;28;20045;-91
2023/06/17 07:02:12;;;;;;;17.67;9.65;;;;;;;20.65;45.98;93330.88;4992696;28;20109;-91
2023/06/17 07:04:38;;;;;;;13.48;8.10;;;;;;;20.66;46.14;93329.59;5010471;28;20408;-91
2023/06/17 07:07:04;;;;;;;17.30;8.82;;;;;;;20.66;45.99;93328.84;4999173;28;20139;-90
2023/06/17 07:09:29;;;;;;;15.52;8.77;;;;;;;20.69;45.75;93325.06;5001952;28;20048;-91
2023/06/17 07:11:56;;;;;;;42.65;11.70;;;;;;;20.83;45.87;93330.03;4990528;28;20046;-90
2023/06/17 07:14:21;;;;;;;23.77;11.38;;;;;;;20.72;45.97;93329.50;4973500;28;20084;-90
2023/06/17 07:16:47;;;;;;;19.45;9.65;;;;;;;20.71;45.89;93328.75;4981324;28;20054;-90
2023/06/17 07:19:12;;;;;;;20.10;10.27;;;;;;;20.74;45.92;93319.47;4957846;28;20728;-91
2023/06/17 07:21:38;;;;;;;20.33;9.27;;;;;;;20.73;45.55;93318.00;4977756;28;20081;-90
2023/06/17 07:24:03;;;;;;;17.95;8.65;;;;;;;20.77;45.67;93312.19;5025069;28;20046;-90
2023/06/17 07:26:30;;;;;;;15.40;7.90;;;;;;;20.80;45.84;93324.84;5017042;28;20125;-91
2023/06/17 07:28:56;;;;;;;16.42;8.27;;;;;;;20.78;45.72;93319.16;4972036;28;20047;-90
2023/06/17 07:31:22;;;;;;;20.58;8.40;;;;;;;20.77;45.63;93320.44;4966348;28;20052;-90
2023/06/17 07:33:48;;;;;;;16.15;7.93;;;;;;;20.80;45.77;93311.84;4974161;28;20125;-90
2023/06/17 07:36:13;;;;;;;18.40;8.18;;;;;;;20.79;45.66;93315.13;4974364;28;20092;-91
2023/06/17 07:38:39;;;;;;;24.80;9.90;;;;;;;20.81;45.83;93318.81;4985283;28;20041;-91
2023/06/17 07:41:04;;;;;;;18.80;8.50;;;;;;;20.82;45.86;93316.81;4996746;28;20112;-90
2023/06/17 07:43:30;;;;;;;29.55;11.40;;;;;;;20.82;45.51;93308.56;4987098;28;20113;-91
2023/06/17 07:45:55;;;;;;;23.92;11.13;;;;;;;20.80;45.81;93308.34;4963570;28;20038;-90
2023/06/17 07:48:20;;;;;;;40.33;16.77;;;;;;;20.80;45.68;93317.34;4979385;28;20067;-91
2023/06/17 07:50:46;;;;;;;32.75;12.23;;;;;;;20.82;45.79;93319.56;5013489;28;20046;-91
2023/06/17 07:53:11;;;;;;;33.13;13.30;;;;;;;20.82;45.65;93314.81;4997349;28;20034;-91
2023/06/17 07:55:39;;;;;;;28.77;12.05;;;;;;;20.82;45.71;93314.81;4984914;28;20052;-91
2023/06/17 07:58:04;;;;;;;55.40;19.67;;;;;;;20.82;45.70;93314.81;4988606;28;20121;-91
2023/06/17 08:00:29;;;;;;;52.20;21.10;;;;;;;20.83;45.88;93312.78;4964869;28;20097;-91
2023/06/17 08:02:56;;;;;;;47.08;19.85;;;;;;;20.83;45.80;93312.78;5000908;28;20458;-89
2023/06/17 08:05:21;;;;;;;73.07;21.42;;;;;;;20.82;45.90;93317.56;4976054;28;20126;-90
2023/06/17 08:07:47;;;;;;;89.50;25.05;;;;;;;20.83;45.90;93308.03;4976737;28;20042;-90
2023/06/17 08:10:12;;;;;;;109.85;30.50;;;;;;;20.85;46.21;93310.25;4976201;28;20042;-91
2023/06/17 08:12:38;;;;;;;125.38;29.70;;;;;;;20.85;45.84;93311.00;5002299;28;20088;-90
2023/06/17 08:15:03;;;;;;;125.53;30.50;;;;;;;20.85;46.14;93313.00;5003695;28;20038;-90
2023/06/17 08:17:29;;;;;;;80.03;27.85;;;;;;;20.85;45.96;93304.75;5002481;28;20587;-90
2023/06/17 08:19:55;;;;;;;107.60;31.02;;;;;;;20.85;45.96;93310.25;4991343;28;20105;-90
2023/06/17 08:22:21;;;;;;;88.47;28.55;;;;;;;20.86;45.89;93311.75;5013068;28;20030;-90
2023/06/17 08:24:47;;;;;;;62.65;23.65;;;;;;;20.87;45.83;93302.97;4981408;28;20046;-91
2023/06/17 08:27:12;;;;;;;71.15;23.65;;;;;;;20.87;46.00;93310.47;5007645;28;20038;-90
2023/06/17 08:29:38;;;;;;;84.95;27.15;;;;;;;20.90;45.92;93297.69;5005456;28;20100;-90
2023/06/17 08:32:06;;;;;;;99.40;29.88;;;;;;;20.91;45.97;93308.16;5025641;28;20099;-90
2023/06/17 08:34:32;;;;;;;91.13;29.48;;;;;;;20.89;45.91;93296.94;5001615;28;20053;-90
2023/06/17 08:36:57;;;;;;;69.93;27.60;;;;;;;20.91;45.74;93304.66;5005070;28;20050;-90
2023/06/17 08:39:23;;;;;;;89.25;25.88;;;;;;;20.92;45.98;93300.66;5010581;28;20115;-90
2023/06/17 08:41:49;;;;;;;80.60;27.77;;;;;;;20.92;45.89;93289.66;4975077;28;20034;-91
2023/06/17 08:44:15;;;;;;;97.28;28.20;;;;;;;20.92;45.74;93293.16;4978890;28;20446;-90
2023/06/17 08:46:44;;;;;;;128.98;35.00;;;;;;;20.91;45.84;93296.41;4973521;28;20046;-90
2023/06/17 08:49:11;;;;;;;92.70;29.00;;;;;;;20.91;46.42;93293.69;4971481;28;20038;-90
2023/06/17 08:51:37;;;;;;;94.55;28.50;;;;;;;20.92;46.23;93306.16;4987535;28;20038;-91
2023/06/17 08:54:02;;;;;;;97.35;33.63;;;;;;;20.92;46.32;93289.66;5011780;28;20103;-89
2023/06/17 08:56:28;;;;;;;114.35;35.47;;;;;;;20.93;46.73;93291.13;5008678;28;20060;-90
2023/06/17 08:58:56;;;;;;;95.32;34.05;;;;;;;20.94;46.50;93295.38;4996013;28;20053;-91
2023/06/17 09:01:22;;;;;;;142.40;42.67;;;;;;;20.94;46.28;93295.38;5028483;28;20060;-90
2023/06/17 09:03:50;;;;;;;113.35;32.72;;;;;;;20.94;46.14;93290.59;5013186;28;20670;-91
2023/06/17 09:06:20;;;;;;;94.55;30.70;;;;;;;20.94;46.09;93296.09;4997756;28;20046;-89
2023/06/17 09:08:50;;;;;;;63.83;24.92;;;;;;;20.95;45.88;93297.59;5023566;28;20377;-90
2023/06/17 09:11:15;;;;;;;119.60;34.35;;;;;;;20.96;46.00;93288.06;4989921;28;20045;-90
2023/06/17 09:13:41;;;;;;;130.45;34.40;;;;;;;20.97;45.96;93299.81;5022865;28;20049;-90
2023/06/17 09:16:06;;;;;;;114.30;31.45;;;;;;;20.98;46.09;93299.28;5001834;28;20575;-90
2023/06/17 09:18:32;;;;;;;145.82;35.30;;;;;;;21.00;46.03;93285.72;4992547;28;20038;-90
2023/06/17 09:20:58;;;;;;;112.40;30.17;;;;;;;20.99;46.13;93292.50;4976507;28;20113;-91
2023/06/17 09:23:23;;;;;;;139.70;35.63;;;;;;;21.01;45.81;93286.47;4979139;28;20037;-91
2023/06/17 09:25:59;;;;;;;133.23;36.15;;;;;;;21.00;45.94;93293.25;4995672;28;20169;-89
2023/06/17 09:28:25;;;;;;;102.43;29.65;;;;;;;21.00;45.95;93290.50;4999872;28;20045;-91
2023/06/17 09:30:53;;;;;;;87.07;30.52;;;;;;;21.01;46.14;93294.69;4988829;28;20129;-91
2023/06/17 09:33:20;;;;;;;89.60;30.55;;;;;;;21.00;45.99;93293.97;4995741;28;20435;-90
2023/06/17 09:35:46;;;;;;;74.25;28.33;;;;;;;21.01;46.10;93289.94;4977513;28;20034;-90
2023/06/17 09:38:17;;;;;;;83.28;28.70;;;;;;;20.99;46.02;93295.25;4976255;28;20034;-90
2023/06/17 09:40:42;;;;;;;72.00;29.35;;;;;;;21.00;46.16;93291.22;4997393;28;20555;-89
2023/06/17 09:43:09;;;;;;;73.45;26.60;;;;;;;21.02;46.06;93293.44;4986150;28;20041;-90
2023/06/17 09:45:35;;;;;;;113.07;33.42;;;;;;;21.00;46.06;93293.97;5012945;28;20049;-89
2023/06/17 09:48:01;;;;;;;108.28;30.30;;;;;;;21.01;46.08;93300.94;5008763;28;20143;-90
2023/06/17 09:50:27;;;;;;;151.20;37.25;;;;;;;21.04;46.00;93288.16;4988132;28;20129;-91
2023/06/17 09:52:54;;;;;;;104.07;29.98;;;;;;;21.02;45.88;93293.44;4992084;28;20642;-91
2023/06/17 09:55:21;;;;;;;94.30;33.53;;;;;;;21.02;45.98;93290.69;4986324;28;20046;-91
2023/06/17 09:57:53;;;;;;;107.85;29.90;;;;;;;21.02;45.98;93283.19;5009474;28;20053;-91
2023/06/17 10:00:20;;;;;;;80.88;27.92;;;;;;;21.03;46.00;93286.66;5010420;28;20084;-91
2023/06/17 10:02:45;;;;;;;126.28;40.40;;;;;;;21.00;46.14;93293.25;4986329;28;20049;-90
2023/06/17 10:05:11;;;;;;;264.13;59.17;;;;;;;21.03;46.41;93292.16;5002857;28;20031;-90
2023/06/17 10:07:37;;;;;;;175.82;44.05;;;;;;;21.03;46.11;93284.66;5017339;28;20045;-91
2023/06/17 10:10:02;;;;;;;118.53;40.53;;;;;;;21.03;45.96;93278.44;5012663;28;20044;-89
2023/06/17 10:12:28;;;;;;;97.90;34.22;;;;;;;21.03;45.92;93270.19;4992724;28;20124;-91
2023/06/17 10:14:53;;;;;;;105.72;34.35;;;;;;;21.04;45.91;93271.66;4974991;28;20528;-90
2023/06/17 10:17:20;;;;;;;80.05;31.45;;;;;;;21.04;45.92;93274.41;4994850;28;20037;-90
2023/06/17 10:19:45;;;;;;;152.23;55.72;;;;;;;21.05;46.14;93284.13;5023690;28;20037;-90
2023/06/17 10:22:12;;;;;;;78.85;30.23;;;;;;;21.08;46.20;93280.31;5012656;28;20095;-90
2023/06/17 10:24:37;;;;;;;93.00;36.80;;;;;;;21.08;46.26;93274.81;4986859;28;20038;-91
2023/06/17 10:27:03;;;;;;;121.50;42.83;;;;;;;21.07;46.16;93279.59;4976347;28;20445;-89
2023/06/17 10:29:29;;;;;;;107.65;41.58;;;;;;;21.07;46.17;93267.84;4975901;28;20374;-90
2023/06/17 10:31:54;;;;;;;90.10;38.30;;;;;;;21.06;45.96;93272.59;4977743;28;20323;-90
2023/06/17 10:34:21;;;;;;;100.95;38.22;;;;;;;21.06;46.16;93266.38;4977435;28;20053;-91
2023/06/17 10:37:00;;;;;;;97.47;36.42;;;;;;;21.06;46.04;93260.88;5006234;28;20046;-91
2023/06/17 10:39:26;;;;;;;160.07;74.78;;;;;;;21.14;45.87;93280.97;4977660;28;20046;-91
2023/06/17 10:41:52;;;;;;;144.73;72.57;;;;;;;21.11;45.64;93280.00;4988965;28;20383;-91
2023/06/17 10:44:20;;;;;;;115.63;53.85;;;;;;;21.06;45.86;93263.63;5029137;28;20120;-91
2023/06/17 10:46:48;;;;;;;131.00;60.58;;;;;;;21.02;45.90;93263.19;5029156;28;20127;-89
2023/06/17 10:49:14;;;;;;;111.93;54.13;;;;;;;21.08;45.64;93280.31;5001961;28;20066;-89
2023/06/17 10:51:45;;;;;;;98.70;46.65;;;;;;;21.01;45.80;93258.97;5012205;28;20068;-90
2023/06/17 10:54:10;;;;;;;;;;;;;;;21.03;45.94;93267.44;5008541;28;20056;-90
2023/06/17 10:56:46;;;;;;;91.37;44.30;;;;;;;21.01;46.21;93264.47;5042485;28;19921;-90
2023/06/17 10:59:12;;;;;;;94.03;38.55;;;;;;;20.98;46.25;93258.06;4978403;28;20283;-90
2023/06/17 11:01:41;;;;;;;80.65;38.83;;;;;;;20.99;46.42;93265.03;4983175;28;20045;-90
2023/06/17 11:04:12;;;;;;;128.80;50.15;;;;;;;20.98;45.87;93257.31;4976766;28;20096;-91
2023/06/17 11:06:37;;;;;;;;;;;;;;;21.01;46.00;93253.47;5007097;28;20053;-91
2023/06/17 11:09:04;;;;;;;105.65;46.97;;;;;;;21.03;46.21;93251.69;5012510;28;19928;-90
2023/06/17 11:11:30;;;;;;;114.75;49.75;;;;;;;21.01;46.24;93254.22;4984932;28;20038;-90
2023/06/17 11:13:55;;;;;;;99.88;47.55;;;;;;;21.04;46.05;93260.66;4981965;28;20539;-90
2023/06/17 11:16:20;;;;;;;125.28;51.13;;;;;;;21.05;46.40;93262.16;4992746;28;20045;-91
2023/06/17 11:18:48;;;;;;;91.65;42.40;;;;;;;21.05;46.05;93254.63;4985553;28;20065;-91